Time;durP1;ratioP1;P1;durP2;ratioP2;P2;SDS_P1;SDS_P2;PMS_P1;PMS_P2;Temp;Humidity;BMP_temperature;BMP_pressure;BME280_temperature;BME280_humidity;BME280_pressure;Samples;Min_cycle;Max_cycle;Signal;HPM_P1;HPM_P2
2021/06/22 00:01:01;;;;;;;14.55;7.28;;;;;;;21.16;76.16;97429.08;1675311;84;28069;-90
2021/06/22 00:03:28;;;;;;;12.25;7.28;;;;;;;21.16;76.19;97420.59;1682332;83;28091;-91
2021/06/22 00:05:54;;;;;;;;;;;;;;;21.17;76.26;97416.88;1691301;82;28098;-91
2021/06/22 00:08:24;;;;;;;;;;;;;;;21.13;76.30;97419.61;1679302;83;20766;-91
2021/06/22 00:10:51;;;;;;;;;;;;;;;21.13;76.35;97426.26;1657406;84;24778;-90
2021/06/22 00:13:20;;;;;;;;;;;;;;;21.11;76.39;97422.97;1650350;84;77763;-91
2021/06/22 00:16:08;;;;;;;;;;;;;;;21.03;76.43;97424.48;1683180;84;101162;-91
2021/06/22 00:18:34;;;;;;;;;;;;;;;21.03;76.50;97420.99;1652349;85;24494;-92
2021/06/22 00:21:02;;;;;;;;;;;;;;;21.01;76.56;97415.86;1655063;85;20758;-91
2021/06/22 00:23:28;;;;;;;8.73;6.25;;;;;;;20.95;76.61;97415.31;1677084;83;24982;-90
2021/06/22 00:25:56;;;;;;;9.03;6.53;;;;;;;20.92;76.65;97409.58;1685556;84;28049;-90
2021/06/22 00:28:22;;;;;;;11.12;6.75;;;;;;;20.89;76.71;97402.83;1677138;84;28074;-90
2021/06/22 00:30:49;;;;;;;8.68;6.97;;;;;;;20.84;76.77;97402.57;1677973;83;28064;-90
2021/06/22 00:33:18;;;;;;;9.18;6.70;;;;;;;20.77;76.82;97400.41;1685154;84;28096;-90
2021/06/22 00:35:45;;;;;;;9.83;6.25;;;;;;;20.74;76.87;97407.43;1685967;83;28105;-91
2021/06/22 00:38:12;;;;;;;12.13;7.35;;;;;;;20.77;76.93;97397.75;1682582;83;28134;-90
2021/06/22 00:40:38;;;;;;;8.38;5.92;;;;;;;20.79;77.00;97402.34;1682452;84;28164;-90
2021/06/22 00:43:04;;;;;;;8.80;5.87;;;;;;;20.78;77.08;97398.86;1674705;84;28001;-90
2021/06/22 00:45:33;;;;;;;8.40;6.10;;;;;;;20.72;77.10;97393.53;1685957;84;28090;-91
2021/06/22 00:48:00;;;;;;;7.33;6.17;;;;;;;20.71;77.12;97395.88;1685064;83;28093;-91
2021/06/22 00:50:28;;;;;;;9.03;5.53;;;;;;;20.71;77.15;97390.05;1678287;83;28188;-90
2021/06/22 00:53:03;;;;;;;9.08;6.50;;;;;;;20.72;77.20;97390.36;1674244;83;28022;-91
2021/06/22 00:55:31;;;;;;;8.43;6.03;;;;;;;20.72;77.25;97384.22;1685222;82;28069;-92
2021/06/22 00:58:01;;;;;;;9.95;6.40;;;;;;;20.74;77.34;97384.83;1677821;83;28183;-91
2021/06/22 01:00:37;;;;;;;13.18;7.30;;;;;;;20.74;77.37;97386.16;1679527;84;28026;-91
2021/06/22 01:03:04;;;;;;;10.63;6.65;;;;;;;20.81;77.43;97390.50;1653854;85;28010;-90
2021/06/22 01:05:36;;;;;;;12.20;6.80;;;;;;;20.91;77.47;97399.45;1681558;83;28121;-91
2021/06/22 01:08:06;;;;;;;11.03;6.28;;;;;;;20.93;77.47;97395.27;1680984;84;28185;-90
2021/06/22 01:10:32;;;;;;;8.88;6.62;;;;;;;20.84;77.44;97383.95;1673554;83;28077;-90
2021/06/22 01:13:02;;;;;;;9.75;7.17;;;;;;;20.71;77.42;97379.41;1676185;83;28116;-92
2021/06/22 01:15:34;;;;;;;11.53;6.87;;;;;;;20.63;77.43;97384.88;1674025;84;28094;-91
2021/06/22 01:18:03;;;;;;;11.25;6.70;;;;;;;20.57;77.44;97380.84;1675122;84;28096;-91
2021/06/22 01:20:32;;;;;;;10.18;6.95;;;;;;;20.56;77.46;97384.55;1687231;84;28146;-91
2021/06/22 01:23:01;;;;;;;11.03;6.60;;;;;;;20.53;77.50;97375.61;1654438;84;28143;-91
2021/06/22 01:25:33;;;;;;;7.45;6.58;;;;;;;20.50;77.54;97371.52;1659887;85;28126;-91
2021/06/22 01:28:01;;;;;;;12.18;7.47;;;;;;;20.43;77.55;97360.84;1694158;83;28111;-91
2021/06/22 01:30:29;;;;;;;9.15;7.58;;;;;;;20.46;77.63;97357.78;1683389;84;28079;-91
2021/06/22 01:32:57;;;;;;;10.60;6.83;;;;;;;20.45;77.66;97354.02;1679559;84;28001;-91
2021/06/22 01:35:25;;;;;;;14.65;8.30;;;;;;;20.43;77.70;97352.88;1680627;83;28100;-90
2021/06/22 01:38:06;;;;;;;8.65;6.75;;;;;;;20.54;77.77;97354.66;1644388;86;28128;-91
2021/06/22 01:40:34;;;;;;;;;;;;;;;20.56;77.82;97356.63;1681141;83;28014;-91
2021/06/22 01:43:01;;;;;;;12.50;7.15;;;;;;;20.64;77.87;97363.92;1671231;83;26288;-90
2021/06/22 01:45:33;;;;;;;11.03;7.22;;;;;;;20.66;77.87;97368.55;1678185;85;28087;-90
2021/06/22 01:47:59;;;;;;;8.93;7.10;;;;;;;20.67;77.86;97369.38;1686738;83;28577;-90
2021/06/22 01:50:26;;;;;;;11.57;7.15;;;;;;;20.66;77.86;97378.36;1681467;84;28058;-90
2021/06/22 01:52:52;;;;;;;10.63;7.40;;;;;;;20.68;77.87;97373.14;1679106;83;28084;-90
2021/06/22 01:55:37;;;;;;;9.98;6.60;;;;;;;20.70;77.86;97372.45;1691312;84;28149;-90
2021/06/22 01:58:09;;;;;;;10.58;7.55;;;;;;;20.68;77.81;97375.80;1669314;84;28012;-92
2021/06/22 02:00:37;;;;;;;15.30;7.35;;;;;;;20.69;77.80;97373.45;1675310;84;28104;-91
2021/06/22 02:03:06;;;;;;;8.78;6.75;;;;;;;20.65;77.79;97374.05;1664955;84;28080;-91
2021/06/22 02:05:33;;;;;;;11.45;6.70;;;;;;;20.56;77.79;97376.56;1677230;83;28200;-90
2021/06/22 02:08:00;;;;;;;11.60;7.20;;;;;;;20.45;77.77;97380.09;1686302;83;28185;-91
2021/06/22 02:10:32;;;;;;;12.07;7.50;;;;;;;20.36;77.79;97375.92;1694472;83;28431;-91
2021/06/22 02:13:04;;;;;;;7.58;6.60;;;;;;;20.40;77.84;97385.14;1648147;85;28154;-91
2021/06/22 02:15:28;;;;;;;11.38;7.62;;;;;;;20.36;77.84;97393.19;1665303;84;28071;-91
2021/06/22 02:17:54;;;;;;;8.55;6.70;;;;;;;20.43;77.90;97399.89;1658091;84;28066;-91
2021/06/22 02:20:21;;;;;;;10.95;7.17;;;;;;;20.51;77.92;97404.25;1674322;84;28128;-92
2021/06/22 02:22:47;;;;;;;8.90;6.50;;;;;;;20.52;77.92;97397.89;1669531;84;28137;-91
2021/06/22 02:25:15;;;;;;;8.43;6.83;;;;;;;20.52;77.93;97399.22;1673121;84;28037;-91
2021/06/22 02:27:43;;;;;;;10.08;6.92;;;;;;;20.43;77.91;97392.73;1660621;85;28170;-91
2021/06/22 02:30:12;;;;;;;9.05;6.85;;;;;;;20.39;77.93;97407.94;1684732;84;28099;-91
2021/06/22 02:32:40;;;;;;;8.50;6.70;;;;;;;20.34;77.95;97403.72;1683345;83;28089;-91
2021/06/22 02:35:16;;;;;;;7.00;6.20;;;;;;;20.36;77.93;97410.47;1686649;83;28015;-91
2021/06/22 02:37:42;;;;;;;12.75;7.20;;;;;;;20.37;77.96;97411.29;1684998;83;28078;-92
2021/06/22 02:40:14;;;;;;;7.25;6.53;;;;;;;20.39;77.98;97417.24;1685585;83;28144;-91
2021/06/22 02:42:41;;;;;;;10.75;6.90;;;;;;;20.42;77.93;97412.86;1666239;84;28090;-91
2021/06/22 02:45:26;;;;;;;11.12;6.28;;;;;;;20.40;77.92;97419.69;1677883;83;28086;-91
2021/06/22 02:47:53;;;;;;;7.53;6.83;;;;;;;20.38;77.91;97424.90;1679695;83;28138;-91
2021/06/22 02:50:20;;;;;;;11.55;6.90;;;;;;;20.40;77.91;97429.52;1685469;83;28097;-92
2021/06/22 02:52:49;;;;;;;9.55;6.83;;;;;;;20.37;77.90;97426.73;1678681;82;28122;-92
2021/06/22 02:55:19;;;;;;;10.50;6.83;;;;;;;20.29;77.91;97426.03;1682658;83;28000;-91
2021/06/22 02:57:48;;;;;;;8.10;7.05;;;;;;;20.23;77.93;97422.31;1660770;84;28087;-91
2021/06/22 03:00:17;;;;;;;9.58;7.10;;;;;;;20.18;77.95;97426.55;1674701;84;28025;-91
2021/06/22 03:02:46;;;;;;;9.48;7.78;;;;;;;20.10;78.00;97430.16;1685830;84;28099;-91
2021/06/22 03:05:13;;;;;;;8.73;7.05;;;;;;;20.15;78.02;97434.39;1684405;84;28166;-91
2021/06/22 03:07:44;;;;;;;14.00;6.90;;;;;;;20.25;78.08;97438.86;1680114;83;28078;-91
2021/06/22 03:10:20;;;;;;;6.87;6.17;;;;;;;20.24;78.09;97437.72;1687293;84;28103;-91
2021/06/22 03:12:47;;;;;;;7.45;5.80;;;;;;;20.11;78.11;97434.46;1684164;83;28233;-91
2021/06/22 03:15:20;;;;;;;12.18;6.35;;;;;;;19.98;78.10;97439.14;1680022;84;28065;-90
2021/06/22 03:17:49;;;;;;;10.45;6.12;;;;;;;19.93;78.13;97440.22;1682231;83;28110;-90
2021/06/22 03:20:16;;;;;;;12.18;6.53;;;;;;;19.83;78.18;97430.93;1680246;83;28022;-90
2021/06/22 03:22:45;;;;;;;8.38;6.80;;;;;;;19.77;78.22;97431.18;1657205;84;28014;-90
2021/06/22 03:25:12;;;;;;;8.33;6.90;;;;;;;19.73;78.28;97434.41;1688002;83;28461;-90
2021/06/22 03:27:44;;;;;;;8.68;6.55;;;;;;;19.74;78.38;97432.90;1657979;83;28097;-90
2021/06/22 03:30:12;;;;;;;9.55;6.62;;;;;;;19.84;78.45;97430.75;1676625;84;28171;-90
2021/06/22 03:32:39;;;;;;;6.70;5.95;;;;;;;19.86;78.51;97431.36;1678215;84;28168;-90
2021/06/22 03:35:08;;;;;;;7.67;6.03;;;;;;;19.82;78.56;97423.97;1683102;84;28228;-89
2021/06/22 03:37:34;;;;;;;8.25;6.20;;;;;;;19.83;78.61;97422.97;1682639;84;28125;-89
2021/06/22 03:40:05;;;;;;;9.63;6.78;;;;;;;19.85;78.69;97428.41;1678937;84;28090;-90
2021/06/22 03:42:36;;;;;;;7.55;6.37;;;;;;;19.90;78.73;97433.97;1679906;83;28065;-90
2021/06/22 03:45:05;;;;;;;7.40;6.60;;;;;;;20.01;78.82;97434.80;1687531;84;28090;-89
2021/06/22 03:47:33;;;;;;;7.75;6.92;;;;;;;20.17;78.90;97436.36;1678499;83;28062;-90
2021/06/22 03:49:59;;;;;;;;;;;;;;;20.41;78.97;97436.45;1684075;84;28497;-90
2021/06/22 03:52:25;;;;;;;;;;;;;;;20.67;79.07;97445.14;1650639;85;81005;-90
2021/06/22 03:54:51;;;;;;;;;;;;;;;20.85;79.17;97440.95;1689829;83;24571;-90
2021/06/22 03:57:18;;;;;;;;;;;;;;;20.93;79.23;97438.66;1687675;83;26078;-90
2021/06/22 03:59:44;;;;;;;10.43;6.03;;;;;;;21.09;79.25;97436.99;1677550;84;26128;-90
2021/06/22 04:02:11;;;;;;;8.98;7.15;;;;;;;21.21;79.24;97434.63;1675956;84;28089;-90
2021/06/22 04:04:42;;;;;;;10.28;7.33;;;;;;;21.37;79.25;97444.10;1684125;84;28012;-91
2021/06/22 04:07:09;;;;;;;9.18;6.75;;;;;;;21.61;79.24;97437.72;1680160;84;28147;-91
2021/06/22 04:09:35;;;;;;;11.35;6.55;;;;;;;21.81;79.20;97453.77;1676049;83;28017;-90
2021/06/22 04:12:02;;;;;;;7.97;7.05;;;;;;;21.97;79.14;97453.92;1677547;84;28459;-89
2021/06/22 04:14:29;;;;;;;9.43;6.78;;;;;;;22.06;79.05;97455.36;1682748;83;28163;-91
2021/06/22 04:16:55;;;;;;;8.03;6.92;;;;;;;22.18;78.97;97459.06;1645188;85;28048;-91
2021/06/22 04:19:23;;;;;;;8.50;6.65;;;;;;;22.20;78.87;97464.20;1667777;83;28101;-90
2021/06/22 04:21:51;;;;;;;10.48;6.92;;;;;;;22.29;78.77;97468.30;1679633;84;28091;-91
2021/06/22 04:24:23;;;;;;;9.18;5.92;;;;;;;22.36;78.67;97463.29;1672946;84;28202;-90
2021/06/22 04:26:52;;;;;;;9.45;6.55;;;;;;;22.41;78.57;97456.83;1681702;83;28163;-90
2021/06/22 04:29:19;;;;;;;11.68;6.87;;;;;;;22.50;78.46;97456.09;1667859;84;28135;-91
2021/06/22 04:31:45;;;;;;;9.33;6.83;;;;;;;22.62;78.40;97461.11;1671099;84;28036;-90
2021/06/22 04:34:11;;;;;;;10.20;7.15;;;;;;;22.84;78.39;97459.89;1668402;84;28075;-91
2021/06/22 04:36:38;;;;;;;9.03;6.67;;;;;;;23.01;78.31;97454.10;1667766;85;28090;-90
2021/06/22 04:39:11;;;;;;;11.25;7.45;;;;;;;23.09;78.21;97444.52;1668133;84;28091;-90
2021/06/22 04:41:37;;;;;;;12.00;6.42;;;;;;;23.06;78.09;97447.11;1666321;84;28063;-91
2021/06/22 04:44:04;;;;;;;11.25;7.03;;;;;;;23.07;78.00;97451.42;1667220;85;28079;-90
2021/06/22 04:46:33;;;;;;;10.60;7.47;;;;;;;23.03;77.97;97448.84;1666987;84;28141;-91
2021/06/22 04:49:00;;;;;;;13.68;7.55;;;;;;;23.07;77.93;97453.27;1663335;84;28075;-91
2021/06/22 04:51:26;;;;;;;11.85;7.83;;;;;;;23.11;77.85;97452.63;1668294;84;27993;-91
2021/06/22 04:53:53;;;;;;;9.45;6.97;;;;;;;23.20;77.78;97456.70;1665561;84;28116;-91
2021/06/22 04:56:22;;;;;;;7.83;7.03;;;;;;;23.30;77.75;97457.06;1669617;84;28119;-90
2021/06/22 04:58:49;;;;;;;10.40;7.25;;;;;;;23.42;77.77;97458.56;1667792;85;28170;-90
2021/06/22 05:01:19;;;;;;;9.83;6.78;;;;;;;23.55;77.80;97461.73;1667958;84;28091;-90
2021/06/22 05:03:49;;;;;;;8.63;7.10;;;;;;;23.65;77.80;97453.56;1666657;84;28114;-91
2021/06/22 05:06:16;;;;;;;8.63;6.67;;;;;;;23.71;77.79;97455.39;1668581;84;34874;-90
2021/06/22 05:08:42;;;;;;;;;;;;;;;23.73;77.67;97457.31;1677093;84;28149;-91
2021/06/22 05:11:12;;;;;;;9.23;7.12;;;;;;;23.70;77.49;97463.09;1670419;84;21962;-91
2021/06/22 05:13:51;;;;;;;7.95;7.00;;;;;;;23.68;77.33;97456.31;1671177;84;28131;-90
2021/06/22 05:16:19;;;;;;;8.55;6.90;;;;;;;23.73;77.30;97457.82;1672417;84;28063;-91
2021/06/22 05:18:57;;;;;;;8.30;6.58;;;;;;;23.86;77.35;97467.11;1665379;84;28064;-91
2021/06/22 05:21:30;;;;;;;;;;;;;;;23.96;77.32;97470.13;1643488;85;28040;-91
2021/06/22 05:24:21;;;;;;;10.60;6.97;;;;;;;23.92;77.20;97462.25;1674696;84;21991;-91
2021/06/22 05:26:52;;;;;;;11.55;7.22;;;;;;;23.85;77.02;97461.97;1670880;84;28091;-90
2021/06/22 05:29:17;;;;;;;11.12;7.17;;;;;;;23.81;76.89;97466.11;1666923;84;28052;-90
2021/06/22 05:31:44;;;;;;;8.05;6.90;;;;;;;23.72;76.75;97465.05;1669507;84;28062;-90
2021/06/22 05:34:11;;;;;;;11.70;7.08;;;;;;;23.73;76.67;97463.98;1670558;83;28175;-91
2021/06/22 05:36:37;;;;;;;8.73;6.58;;;;;;;23.76;76.63;97463.58;1667214;84;28149;-91
2021/06/22 05:39:10;;;;;;;7.83;7.03;;;;;;;23.80;76.58;97465.81;1669832;85;28165;-91
2021/06/22 05:41:42;;;;;;;9.70;7.72;;;;;;;23.82;76.53;97460.56;1664684;85;28083;-91
2021/06/22 05:44:24;;;;;;;10.90;7.45;;;;;;;23.87;76.49;97459.92;1669937;84;28119;-92
2021/06/22 05:46:50;;;;;;;;;;;;;;;23.95;76.53;97470.34;1648671;85;28087;-90
2021/06/22 05:49:34;;;;;;;8.70;6.83;;;;;;;24.04;76.60;97468.55;1649251;86;21978;-91
2021/06/22 05:52:08;;;;;;;11.45;7.15;;;;;;;24.07;76.66;97473.97;1649033;86;28102;-91
2021/06/22 05:54:36;;;;;;;9.93;6.60;;;;;;;24.09;76.61;97483.42;1645650;86;28107;-91
2021/06/22 05:57:04;;;;;;;9.68;6.62;;;;;;;24.16;76.52;97492.74;1648683;84;28144;-91
2021/06/22 05:59:30;;;;;;;8.08;6.35;;;;;;;24.21;76.52;97494.28;1649850;86;28084;-91
2021/06/22 06:02:06;;;;;;;8.70;6.45;;;;;;;24.24;76.48;97489.83;1646107;86;28013;-92
2021/06/22 06:04:35;;;;;;;10.53;6.87;;;;;;;24.24;76.39;97493.84;1645016;86;28121;-91
2021/06/22 06:07:04;;;;;;;8.38;6.60;;;;;;;24.29;76.41;97499.87;1644410;85;28086;-91
2021/06/22 06:09:33;;;;;;;7.03;5.78;;;;;;;24.26;76.38;97494.97;1639351;86;28088;-92
2021/06/22 06:12:00;;;;;;;8.70;6.03;;;;;;;24.27;76.39;97493.42;1649563;86;28120;-91
2021/06/22 06:14:26;;;;;;;8.85;6.22;;;;;;;24.31;76.34;97503.16;1651321;86;28067;-91
2021/06/22 06:16:55;;;;;;;8.70;6.10;;;;;;;24.39;76.38;97522.42;1632460;85;28167;-91
2021/06/22 06:19:24;;;;;;;7.03;6.20;;;;;;;24.41;76.41;97535.07;1646179;86;28076;-91
2021/06/22 06:21:57;;;;;;;8.90;6.17;;;;;;;24.42;76.39;97538.56;1672662;85;28080;-91
2021/06/22 06:24:29;;;;;;;8.15;6.50;;;;;;;24.39;76.35;97534.97;1670331;85;28555;-90
2021/06/22 06:27:03;;;;;;;10.25;5.78;;;;;;;24.36;76.27;97524.72;1674801;85;28024;-91
2021/06/22 06:32:12;;;;;;;9.13;7.30;;;;;;;24.55;76.27;97539.28;1672934;85;28064;-89
2021/06/22 06:34:39;;;;;;;11.28;6.40;;;;;;;24.73;76.42;97567.14;1673794;84;28207;-90
2021/06/22 06:37:12;;;;;;;15.28;6.03;;;;;;;24.76;76.44;97585.45;1649858;86;28074;-90
2021/06/22 06:39:47;;;;;;;6.67;5.90;;;;;;;24.71;76.42;97632.91;1644613;86;28157;-91
2021/06/22 06:42:28;;;;;;;8.48;6.83;;;;;;;24.46;76.25;97675.68;1636670;86;28120;-89
2021/06/22 06:44:55;;;;;;;8.63;6.37;;;;;;;24.07;76.02;97698.53;1648912;85;28199;-91
2021/06/22 06:47:22;;;;;;;13.45;6.10;;;;;;;23.64;75.65;97720.92;1643509;86;28078;-90
2021/06/22 06:49:56;;;;;;;9.95;6.05;;;;;;;23.36;75.52;97722.44;1636023;86;28108;-91
2021/06/22 06:52:22;;;;;;;7.03;5.15;;;;;;;23.13;75.40;97732.17;1622325;86;28191;-91
2021/06/22 06:54:49;;;;;;;12.82;5.75;;;;;;;22.90;75.33;97734.41;1647058;86;28113;-88
2021/06/22 06:57:15;;;;;;;7.62;5.72;;;;;;;22.70;75.27;97719.64;1638159;86;28041;-90
2021/06/22 06:59:42;;;;;;;7.58;4.90;;;;;;;22.48;75.27;97703.46;1689895;83;28131;-90
2021/06/22 07:02:09;;;;;;;7.70;5.35;;;;;;;22.27;75.28;97714.25;1645640;85;28184;-89
2021/06/22 07:04:35;;;;;;;10.63;6.08;;;;;;;22.09;75.29;97718.80;1645529;86;28074;-90
2021/06/22 07:07:02;;;;;;;7.22;5.70;;;;;;;21.94;75.36;97712.24;1637334;84;28063;-91
2021/06/22 07:09:29;;;;;;;12.68;6.15;;;;;;;21.83;75.46;97711.42;1650322;86;28176;-91
2021/06/22 07:11:57;;;;;;;11.33;6.58;;;;;;;21.73;75.61;97710.95;1645559;86;28080;-90
2021/06/22 07:14:25;;;;;;;8.18;5.47;;;;;;;21.66;75.74;97709.58;1658674;83;28126;-91
2021/06/22 07:16:53;;;;;;;11.18;6.10;;;;;;;21.60;75.90;97706.89;1644696;85;28121;-91
2021/06/22 07:19:19;;;;;;;7.08;5.50;;;;;;;21.53;76.06;97699.36;1636385;86;28100;-90
2021/06/22 07:21:46;;;;;;;;;;;;;;;21.45;76.22;97687.50;1657310;86;28008;-91
2021/06/22 07:24:18;;;;;;;7.67;4.97;;;;;;;21.38;76.36;97681.33;1642919;86;20309;-92
2021/06/22 07:26:45;;;;;;;8.85;4.35;;;;;;;21.31;76.50;97679.94;1635050;86;28098;-92
2021/06/22 07:29:12;;;;;;;5.78;4.10;;;;;;;21.25;76.66;97676.21;1693716;83;28147;-91
2021/06/22 07:31:44;;;;;;;8.28;4.50;;;;;;;21.20;76.81;97682.63;1644558;86;28021;-92
2021/06/22 07:34:11;;;;;;;10.45;4.97;;;;;;;21.16;76.92;97694.67;1640262;84;28149;-91
2021/06/22 07:36:37;;;;;;;7.58;3.90;;;;;;;21.14;77.06;97706.48;1649690;86;28024;-92
2021/06/22 07:39:06;;;;;;;6.85;4.05;;;;;;;21.09;77.17;97718.20;1671688;83;28148;-93
2021/06/22 07:41:32;;;;;;;6.35;4.30;;;;;;;21.06;77.29;97719.39;1672032;84;28097;-93
2021/06/22 07:44:06;;;;;;;5.60;3.72;;;;;;;21.04;77.41;97725.44;1675233;85;28145;-93
2021/06/22 07:46:40;;;;;;;4.50;2.95;;;;;;;21.01;77.57;97718.31;1657701;83;28088;-94
2021/06/22 07:49:12;;;;;;;7.30;3.42;;;;;;;20.97;77.69;97711.73;1638960;85;28066;-92
2021/06/22 07:51:52;;;;;;;6.50;3.65;;;;;;;20.87;77.85;97692.94;1635554;85;28033;-93
2021/06/22 07:54:35;;;;;;;8.43;4.45;;;;;;;20.79;77.98;97676.27;1646921;85;28086;-93
2021/06/22 07:57:16;;;;;;;6.83;3.80;;;;;;;20.81;78.17;97699.52;1672645;84;28182;-92
2021/06/22 08:00:34;;;;;;;7.03;3.37;;;;;;;20.93;78.35;97721.95;1663172;84;28105;-94
2021/06/22 08:03:10;;;;;;;4.33;2.45;;;;;;;21.01;78.52;97720.98;1673772;84;28093;-93
2021/06/22 08:05:43;;;;;;;4.22;2.95;;;;;;;20.93;78.66;97688.70;1667403;84;28158;-94
2021/06/22 08:08:14;;;;;;;6.45;3.15;;;;;;;20.85;78.78;97676.84;1672398;85;28118;-93
2021/06/22 08:10:41;;;;;;;8.03;4.45;;;;;;;20.84;78.91;97661.89;1658764;84;28082;-92
2021/06/22 08:13:21;;;;;;;7.47;3.98;;;;;;;20.82;79.05;97655.45;1670626;84;28119;-92
2021/06/22 08:15:50;;;;;;;6.03;3.30;;;;;;;20.86;79.19;97659.37;1662319;84;28102;-92
2021/06/22 08:18:17;;;;;;;6.83;3.83;;;;;;;20.92;79.37;97663.10;1663297;84;28143;-91
2021/06/22 08:20:45;;;;;;;6.00;4.15;;;;;;;21.01;79.52;97657.95;1674975;84;28107;-92
2021/06/22 08:23:34;;;;;;;6.05;4.00;;;;;;;21.19;79.69;97651.70;1665652;84;28100;-93
2021/06/22 08:26:05;;;;;;;6.72;3.65;;;;;;;21.34;79.80;97667.56;1611593;88;28093;-92
2021/06/22 08:28:53;;;;;;;6.10;4.00;;;;;;;21.44;79.94;97689.88;1631512;86;28081;-92
2021/06/22 08:31:20;;;;;;;6.15;4.08;;;;;;;21.47;80.04;97705.45;1635794;85;28109;-91
2021/06/22 08:33:46;;;;;;;5.70;3.25;;;;;;;21.48;80.12;97693.79;1622584;86;28086;-92
2021/06/22 08:36:29;;;;;;;6.30;3.65;;;;;;;21.50;80.19;97669.11;1615426;86;28064;-92
2021/06/22 08:38:57;;;;;;;4.53;3.25;;;;;;;21.56;80.21;97664.34;1618234;88;27994;-91
2021/06/22 08:41:26;;;;;;;5.03;3.70;;;;;;;21.64;80.29;97649.05;1619921;86;28146;-91
2021/06/22 08:43:57;;;;;;;7.78;3.50;;;;;;;21.71;80.34;97641.09;1611722;88;28084;-92
2021/06/22 08:46:23;;;;;;;6.77;3.73;;;;;;;21.71;80.42;97629.11;1629209;86;28196;-91
2021/06/22 08:48:57;;;;;;;8.90;4.42;;;;;;;21.72;80.45;97632.06;1654422;85;41978;-91
2021/06/22 08:51:24;;;;;;;7.62;4.72;;;;;;;21.83;80.54;97626.69;1651394;86;28067;-91
2021/06/22 08:54:21;;;;;;;6.75;4.40;;;;;;;21.95;80.62;97617.97;1650555;86;28132;-91
2021/06/22 08:56:55;;;;;;;6.55;4.15;;;;;;;22.06;80.68;97604.08;1662511;84;28150;-91
2021/06/22 08:59:24;;;;;;;5.90;3.83;;;;;;;22.11;80.75;97591.48;1624530;86;28501;-91
2021/06/22 09:02:06;;;;;;;9.23;3.83;;;;;;;22.19;80.82;97588.66;1663657;84;28100;-90
2021/06/22 09:04:34;;;;;;;9.40;4.42;;;;;;;22.26;80.89;97579.31;1638293;85;28074;-91
2021/06/22 09:07:13;;;;;;;6.03;3.60;;;;;;;22.32;80.94;97574.52;1650541;85;28070;-91
2021/06/22 09:09:43;;;;;;;7.30;2.87;;;;;;;22.34;80.92;97563.14;1673551;84;28142;-91
2021/06/22 09:12:11;;;;;;;6.55;4.05;;;;;;;22.42;80.97;97559.77;1675464;84;28207;-90
2021/06/22 09:14:46;;;;;;;4.53;2.98;;;;;;;22.47;80.95;97560.52;1668675;84;28015;-90
2021/06/22 09:17:21;;;;;;;5.55;3.52;;;;;;;22.55;80.91;97552.30;1674985;84;28087;-90
2021/06/22 09:19:53;;;;;;;7.15;2.92;;;;;;;22.60;80.85;97551.69;1643875;85;28148;-90
2021/06/22 09:22:19;;;;;;;;;;;;;;;22.62;80.79;97540.31;1670905;85;28235;-90
2021/06/22 09:25:24;;;;;;;8.28;3.15;;;;;;;22.66;80.72;97542.86;1667928;85;21722;-91
2021/06/22 09:27:55;;;;;;;5.20;2.72;;;;;;;22.70;80.63;97554.25;1621726;86;28107;-90
2021/06/22 09:30:47;;;;;;;3.47;2.87;;;;;;;22.79;80.60;97565.59;1642071;86;28189;-90
2021/06/22 09:33:31;;;;;;;5.40;3.33;;;;;;;22.86;80.65;97579.22;1644411;86;28094;-91
2021/06/22 09:36:21;;;;;;;4.70;2.77;;;;;;;22.96;80.74;97595.34;1642275;86;28042;-90
2021/06/22 09:38:58;;;;;;;6.42;3.27;;;;;;;23.14;80.87;97611.54;1646702;85;28169;-90
2021/06/22 09:41:28;;;;;;;6.08;3.22;;;;;;;23.27;80.91;97620.88;1646288;86;28090;-91
2021/06/22 09:44:09;;;;;;;4.47;3.10;;;;;;;23.36;80.92;97622.30;1648617;86;28067;-90
2021/06/22 09:46:47;;;;;;;9.63;3.58;;;;;;;23.52;80.97;97623.73;1654145;84;28087;-89
2021/06/22 09:49:24;;;;;;;6.30;3.72;;;;;;;23.69;81.09;97615.59;1668840;85;28067;-90
2021/06/22 09:52:09;;;;;;;9.88;3.87;;;;;;;23.82;81.16;97613.40;1663429;84;28134;-90
2021/06/22 09:54:50;;;;;;;6.28;4.05;;;;;;;23.84;81.12;97620.70;1661780;84;28012;-91
2021/06/22 09:57:21;;;;;;;6.92;3.90;;;;;;;23.89;81.02;97619.55;1657186;85;27981;-90
2021/06/22 09:59:53;;;;;;;5.58;3.30;;;;;;;23.95;80.97;97620.02;1668016;84;28058;-90
2021/06/22 10:02:22;;;;;;;5.05;3.27;;;;;;;23.96;80.81;97625.67;1670762;84;28063;-90
2021/06/22 10:04:50;;;;;;;5.65;3.22;;;;;;;23.91;80.58;97624.15;1666731;85;28114;-90
2021/06/22 10:07:26;;;;;;;7.80;3.42;;;;;;;23.87;80.34;97632.29;1669710;85;28092;-90
2021/06/22 10:10:03;;;;;;;4.85;2.98;;;;;;;23.89;80.18;97627.57;1669536;84;28106;-90
2021/06/22 10:12:32;;;;;;;5.00;3.02;;;;;;;24.01;80.12;97625.86;1668441;85;28107;-91
2021/06/22 10:15:08;;;;;;;7.10;3.58;;;;;;;24.02;79.94;97621.64;1670375;84;28056;-90
2021/06/22 10:17:39;;;;;;;6.15;3.52;;;;;;;24.02;79.76;97624.31;1668045;84;28023;-91
2021/06/22 10:20:07;;;;;;;4.28;3.20;;;;;;;24.13;79.68;97620.16;1671017;84;28156;-90
2021/06/22 10:22:36;;;;;;;5.37;3.75;;;;;;;24.24;79.61;97619.52;1668937;84;28158;-91
2021/06/22 10:25:08;;;;;;;8.10;3.30;;;;;;;24.29;79.45;97619.70;1666065;84;28175;-91
2021/06/22 10:27:41;;;;;;;8.23;3.00;;;;;;;24.29;79.21;97622.88;1664312;84;28113;-91
2021/06/22 10:30:10;;;;;;;5.53;3.60;;;;;;;24.23;78.86;97631.24;1668105;84;28058;-91
2021/06/22 10:32:45;;;;;;;5.35;2.85;;;;;;;24.27;78.69;97633.81;1649431;85;28118;-92
2021/06/22 10:35:14;;;;;;;4.75;3.08;;;;;;;24.25;78.50;97630.52;1667084;83;28097;-91
2021/06/22 10:37:50;;;;;;;4.58;3.17;;;;;;;24.25;78.17;97629.19;1671694;83;28098;-89
2021/06/22 10:40:26;;;;;;;5.33;3.42;;;;;;;24.28;77.94;97622.06;1665196;84;28064;-89
2021/06/22 10:42:56;;;;;;;5.62;2.67;;;;;;;24.40;77.84;97624.37;1669521;83;28162;-89
2021/06/22 10:45:23;;;;;;;4.40;3.30;;;;;;;24.53;77.72;97624.30;1665119;83;28126;-89
2021/06/22 10:47:51;;;;;;;7.92;3.20;;;;;;;24.62;77.59;97616.83;1651226;85;28113;-89
2021/06/22 10:50:27;;;;;;;6.95;3.35;;;;;;;24.68;77.39;97615.97;1655260;85;28010;-89
2021/06/22 10:53:00;;;;;;;4.53;3.65;;;;;;;24.78;77.28;97622.17;1641449;85;28173;-89
2021/06/22 10:55:31;;;;;;;6.10;3.42;;;;;;;24.83;77.04;97622.34;1670342;84;28046;-89
2021/06/22 10:58:14;;;;;;;5.05;3.12;;;;;;;24.97;76.94;97620.73;1669704;83;28095;-88
2021/06/22 11:00:55;;;;;;;6.40;3.15;;;;;;;25.13;76.82;97623.38;1670882;83;28151;-89
2021/06/22 11:03:33;;;;;;;7.23;3.20;;;;;;;25.25;76.60;97620.30;1673821;84;28085;-89
2021/06/22 11:06:12;;;;;;;8.13;3.50;;;;;;;25.37;76.42;97620.37;1665244;83;28159;-89
2021/06/22 11:08:43;;;;;;;3.80;3.20;;;;;;;25.50;76.27;97626.12;1669242;83;28076;-88
2021/06/22 11:11:13;;;;;;;5.55;3.30;;;;;;;25.56;76.04;97624.76;1662111;83;28121;-88
2021/06/22 11:13:54;;;;;;;5.90;3.12;;;;;;;25.53;75.61;97627.83;1687030;83;28115;-88
2021/06/22 11:16:25;;;;;;;4.62;3.55;;;;;;;25.55;75.27;97622.27;1667108;83;28084;-89
2021/06/22 11:18:57;;;;;;;;;;;;;;;25.66;75.07;97626.41;1689904;83;28080;-88
2021/06/22 11:21:35;;;;;;;5.47;3.40;;;;;;;25.76;74.87;97623.20;1679773;83;22124;-89
2021/06/22 11:24:11;;;;;;;5.83;3.52;;;;;;;25.77;74.51;97624.33;1664260;83;36043;-89
2021/06/22 11:26:48;;;;;;;6.80;3.50;;;;;;;25.85;74.25;97627.23;1679442;83;28038;-89
2021/06/22 11:29:19;;;;;;;6.78;3.58;;;;;;;25.86;73.90;97618.13;1667684;83;28152;-89
2021/06/22 11:31:53;;;;;;;8.03;3.62;;;;;;;25.95;73.63;97620.83;1678730;83;28183;-89
2021/06/22 11:34:34;;;;;;;5.75;3.60;;;;;;;26.03;73.39;97607.09;1671811;83;28086;-89
2021/06/22 11:37:07;;;;;;;4.70;3.10;;;;;;;26.15;73.19;97612.53;1678825;83;28088;-88
2021/06/22 11:39:35;;;;;;;5.40;3.22;;;;;;;26.12;72.76;97603.61;1678624;83;28065;-89
2021/06/22 11:42:15;;;;;;;8.70;3.33;;;;;;;26.12;72.40;97604.42;1681786;83;28169;-89
2021/06/22 11:44:50;;;;;;;8.88;3.65;;;;;;;26.19;72.21;97605.14;1672717;83;28136;-89
2021/06/22 11:47:29;;;;;;;8.18;3.60;;;;;;;26.30;71.95;97603.58;1681259;82;28083;-89
2021/06/22 11:50:00;;;;;;;6.12;4.08;;;;;;;26.28;71.51;97598.98;1684018;82;28170;-89
2021/06/22 11:52:39;;;;;;;4.85;3.25;;;;;;;26.39;71.27;97594.70;1685748;83;28146;-89
2021/06/22 11:55:16;;;;;;;7.67;3.90;;;;;;;26.44;71.02;97597.53;1686707;84;28020;-89
2021/06/22 11:57:48;;;;;;;7.40;3.60;;;;;;;26.40;70.57;97601.20;1685321;84;28128;-89